Wan Hai 508 — 9VJJ6 — position and weather

sailwx.info

Track history (hours):
 
Tides and Currents Weather Stations Pressure Air Temp Water Temp Dewpoint Dewpoint Depression Visibility Wind Speed Wind Dir Waves Ship Positions

Wan Hai 508

Last reported at 2016-Jul-18 19:34 UTC. Time now 2016-Jul-27 17:15 UTC.
Position N 01°52' E 102°27'.
Warning: this ship's position is 8 days out of date.

Length 269 m; draft 8.7 m.

Type: Cargo ship. MMSI: 565567000.

Date/timePositionNaut miles runAvg speedWind from/ knotsBaromVisibWave heightAir tempDewpointWater temp
2016-Jul-18 19:34N 01°52' E 102°27'1919.1
2016-Jul-18 18:33N 01°44' E 102°45'6217.8
2016-Jul-18 15:05N 01°11' E 103°37'4 8.2
2016-Jul-18 14:34N 01°13' E 103°41'6 6.3
2016-Jul-18 13:33N 01°15' E 103°47'0 0.0
2016-Jul-18 12:31N 01°15' E 103°47'0 0.0
2016-Jul-18 11:31N 01°15' E 103°47'0 0.0
2016-Jul-18 10:31N 01°15' E 103°47'0 0.0
2016-Jul-18 09:25N 01°15' E 103°47'0 0.0
2016-Jul-18 08:31N 01°15' E 103°47'0 0.0
2016-Jul-18 07:31N 01°15' E 103°47'2 1.8
2016-Jul-18 06:33N 01°14' E 103°47'4 3.7
2016-Jul-18 05:33N 01°16' E 103°51'0 0.1
2016-Jul-18 04:30N 01°16' E 103°51'0 0.0
2016-Jul-18 03:33N 01°16' E 103°51'0 0.0
2016-Jul-18 02:30N 01°16' E 103°51'0 0.0
2016-Jul-18 01:30N 01°16' E 103°51'0 0.0
2016-Jul-18 00:30N 01°16' E 103°51'0 0.0
2016-Jul-17 23:30N 01°16' E 103°51'0 0.0
2016-Jul-17 22:30N 01°16' E 103°51'0 0.0
2016-Jul-17 21:30N 01°16' E 103°51'0 0.0
2016-Jul-17 20:30N 01°16' E 103°51'0 0.0
2016-Jul-17 19:33N 01°16' E 103°51'3 2.8
2016-Jul-17 18:33N 01°14' E 103°53'3 3.0
2016-Jul-17 17:32N 01°11' E 103°52'9212.9
2016-Jul-17 10:24N 01°48' E 102°27'  
Track history (hours):
 
Tides and Currents Weather Stations Pressure Air Temp Water Temp Dewpoint Dewpoint Depression Visibility Wind Speed Wind Dir Waves Ship Positions

Wan Hai 508

Last reported at 2016-Jul-18 19:34 UTC. Time now 2016-Jul-27 17:15 UTC.
Position N 01°52' E 102°27'.
Warning: this ship's position is 8 days out of date.

Length 269 m; draft 8.7 m.

Type: Cargo ship. MMSI: 565567000.

Date/timePositionNaut miles runAvg speedWind from/ knotsBaromVisibWave heightAir tempDewpointWater temp
2016-Jul-18 19:34N 01°52' E 102°27'1919.1
2016-Jul-18 18:33N 01°44' E 102°45'6217.8
2016-Jul-18 15:05N 01°11' E 103°37'4 8.2
2016-Jul-18 14:34N 01°13' E 103°41'6 6.3
2016-Jul-18 13:33N 01°15' E 103°47'0 0.0
2016-Jul-18 12:31N 01°15' E 103°47'0 0.0
2016-Jul-18 11:31N 01°15' E 103°47'0 0.0
2016-Jul-18 10:31N 01°15' E 103°47'0 0.0
2016-Jul-18 09:25N 01°15' E 103°47'0 0.0
2016-Jul-18 08:31N 01°15' E 103°47'0 0.0
2016-Jul-18 07:31N 01°15' E 103°47'2 1.8
2016-Jul-18 06:33N 01°14' E 103°47'4 3.7
2016-Jul-18 05:33N 01°16' E 103°51'0 0.1
2016-Jul-18 04:30N 01°16' E 103°51'0 0.0
2016-Jul-18 03:33N 01°16' E 103°51'0 0.0
2016-Jul-18 02:30N 01°16' E 103°51'0 0.0
2016-Jul-18 01:30N 01°16' E 103°51'0 0.0
2016-Jul-18 00:30N 01°16' E 103°51'0 0.0
2016-Jul-17 23:30N 01°16' E 103°51'0 0.0
2016-Jul-17 22:30N 01°16' E 103°51'0 0.0
2016-Jul-17 21:30N 01°16' E 103°51'0 0.0
2016-Jul-17 20:30N 01°16' E 103°51'0 0.0
2016-Jul-17 19:33N 01°16' E 103°51'3 2.8
2016-Jul-17 18:33N 01°14' E 103°53'3 3.0
2016-Jul-17 17:32N 01°11' E 103°52'9212.9
2016-Jul-17 10:24N 01°48' E 102°27'  

Dump ship's entire track history